Flight Track Log - Related Links

Times and Time Zones

All times are in EDT time to prevent confusion due to time zone crossing. See the SKW6492 flight status page for this flight to view local times or setup timezone preferences in your user account.

Time Position Orientation Groundspeed Altitude Reporting Facility
EDT Latitude Longitude Course Direction KTS MPH feet Rate Location/Type
Wed 09:57:02 PM 39.9500 -104.6833 348° North 213 245 7,700  Level Denver TRACON
Wed 09:58:02 PM 40.0167 -104.6667 11° North 250 288 9,300 1,550 Climbing Denver TRACON
Wed 09:59:02 PM 40.0833 -104.6667 360° North 287 330 10,800 1,714 Climbing Denver TRACON
Wed 10:00:08 PM 40.1833 -104.6833 353° North 289 333 12,900 1,809 Climbing Denver TRACON
Wed 10:01:18 PM 40.2789 -104.7161 345° North 310 357 14,900 1,649 Climbing Denver Center
Wed 10:02:00 PM 40.6011 -104.9074 348° North  Level FlightAware Approximate
Wed 10:02:19 PM 40.3664 -104.7403 348° North 318 366 16,500  Level Denver Center
Wed 10:03:21 PM 40.4639 -104.7650 349° North 329 379 18,000 1,403 Climbing Denver Center
Wed 10:04:23 PM 40.5556 -104.7900 348° North 334 384 19,400 1,268 Climbing Denver Center
Wed 10:05:24 PM 40.6508 -104.8156 348° North 349 402 20,600 1,171 Climbing Denver Center
Wed 10:06:26 PM 40.7569 -104.8444 348° North 350 403 21,800 1,210 Climbing Denver Center
Wed 10:07:28 PM 40.8514 -104.8800 344° North 352 405 23,100 1,073 Climbing Denver Center
Wed 10:08:29 PM 40.9381 -104.9433 331° Northwest 355 409 24,000 976 Climbing Denver Center
Wed 10:09:31 PM 41.0156 -105.0264 321° Northwest 366 421 25,100 927 Climbing Denver Center
Wed 10:10:32 PM 41.0919 -105.1078 321° Northwest 365 420 25,900 439 Climbing Denver Center
Wed 10:11:34 PM 41.1822 -105.2028 322° Northwest 370 426 26,000 49 Climbing Denver Center
Wed 10:12:35 PM 41.2594 -105.2864 321° Northwest 372 428 26,000  Level Denver Center
Wed 10:13:37 PM 41.3483 -105.3811 321° Northwest 367 422 26,000  Level Denver Center
Wed 10:14:38 PM 41.4253 -105.4644 321° Northwest 372 428 26,000  Level Denver Center
Wed 10:15:40 PM 41.5128 -105.5583 321° Northwest 363 418 26,000  Level Denver Center
Wed 10:16:41 PM 41.5889 -105.6406 321° Northwest 366 421 26,000  Level Denver Center
Wed 10:17:43 PM 41.6756 -105.7347 321° Northwest 360 414 26,000  Level Denver Center
Wed 10:18:44 PM 41.7506 -105.8153 321° Northwest 360 414 26,000  Level Denver Center
Wed 10:19:46 PM 41.8256 -105.8981 321° Northwest 364 419 26,000  Level Denver Center
Wed 10:20:47 PM 41.9111 -105.9925 321° Northwest 358 412 26,000  Level Denver Center
Wed 10:21:49 PM 41.9883 -106.0761 321° Northwest 364 419 26,000  Level Denver Center
Wed 10:22:50 PM 42.0631 -106.1581 321° Northwest 362 417 26,000  Level Denver Center
Wed 10:23:51 PM 42.1467 -106.2531 320° Northwest 356 410 26,000  Level Denver Center
Wed 10:24:53 PM 42.2225 -106.3358 321° Northwest 364 419 26,000  Level Denver Center
Wed 10:25:54 PM 42.3092 -106.4331 320° Northwest 363 418 26,000  Level Denver Center
Wed 10:26:55 PM 42.3842 -106.5172 320° Northwest 364 419 26,000  Level Denver Center
Wed 10:27:57 PM 42.4594 -106.6008 321° Northwest 366 421 26,000  Level Denver Center
Wed 10:28:58 PM 42.5467 -106.6992 320° Northwest 364 419 26,000  Level Denver Center
Wed 10:29:59 PM 42.6214 -106.7839 320° Northwest 365 420 26,000  Level Denver Center
Wed 10:31:01 PM 42.7075 -106.8808 320° Northwest 360 414 26,000  Level Denver Center
Wed 10:32:02 PM 42.7831 -106.9658 320° Northwest 369 425 26,000  Level Denver Center
Wed 10:33:03 PM 42.8553 -107.0503 319° Northwest 359 413 26,000  Level Denver Center
Wed 10:33:51 PM 42.9250 -107.1297 320° Northwest 366 421 26,000  Level Salt Lake Center
Wed 10:34:52 PM 42.9936 -107.2086 320° Northwest 362 417 26,000  Level Salt Lake Center
Wed 10:35:54 PM 43.0708 -107.2989 320° Northwest 365 420 26,000  Level Salt Lake Center
Wed 10:36:55 PM 43.1633 -107.4033 321° Northwest 362 417 26,000  Level Salt Lake Center
Wed 10:37:57 PM 43.2408 -107.4944 319° Northwest 365 420 26,000  Level Salt Lake Center
Wed 10:38:59 PM 43.3183 -107.5853 320° Northwest 367 422 26,000  Level Salt Lake Center
Wed 10:40:00 PM 43.3964 -107.6758 320° Northwest 367 422 26,000  Level Salt Lake Center
Wed 10:41:02 PM 43.4736 -107.7675 319° Northwest 367 422 26,000  Level Salt Lake Center
Wed 10:42:04 PM 43.5517 -107.8594 320° Northwest 369 425 26,000  Level Salt Lake Center
Wed 10:43:05 PM 43.6300 -107.9500 320° Northwest 369 425 26,000  Level Salt Lake Center
Wed 10:44:07 PM 43.7131 -108.0347 324° Northwest 375 432 26,000  Level Salt Lake Center
Wed 10:45:08 PM 43.8233 -108.1158 332° Northwest 373 429 26,000 -829 Level Salt Lake Center
Wed 10:46:10 PM 43.9169 -108.1833 333° Northwest 376 433 24,300 -1,790 Descending Salt Lake Center
Wed 10:47:12 PM 44.0089 -108.2494 333° Northwest 373 429 22,300 -1,951 Descending Salt Lake Center
Wed 10:48:13 PM 44.0961 -108.3133 332° Northwest 357 411 20,300 -2,000 Descending Salt Lake Center
Wed 10:49:15 PM 44.1817 -108.3769 332° Northwest 350 403 18,200 -1,902 Descending Salt Lake Center
Wed 10:50:16 PM 44.2650 -108.4375 333° Northwest 343 395 16,400 -1,854 Descending Salt Lake Center
Wed 10:51:18 PM 44.3461 -108.4986 332° Northwest 337 388 14,400 -1,935 Descending Salt Lake Center
Wed 10:52:20 PM 44.4250 -108.5569 332° Northwest 330 380 12,400 -2,098 Descending Salt Lake Center
Wed 10:53:21 PM 44.5158 -108.6253 332° Northwest 319 367 10,100 -1,171 Descending Salt Lake Center
Wed 10:54:23 PM 44.5797 -108.6744 331° Northwest 292 336 10,000 -585 Descending Salt Lake Center
Wed 10:55:24 PM 44.6239 -108.7211 323° Northwest 233 268 8,900 -976 Descending Salt Lake Center
Wed 10:56:26 PM 44.6539 -108.7758 308° West 203 234 8,000 -683 Descending Salt Lake Center
Wed 10:57:27 PM 44.6264 -108.8369 238° Southwest 192 221 7,500 -197 Descending Salt Lake Center
Wed 10:58:28 PM 44.5956 -108.8922 232° Southwest 186 214 7,600 -439 Climbing Salt Lake Center
Wed 10:59:30 PM 44.5700 -108.9378 232° Southwest 170 196 6,600 -732 Descending Salt Lake Center
Wed 11:00:31 PM 44.5422 -108.9875 232° Southwest 160 184 6,100 -492 Descending Salt Lake Center

Login

Don't have an account? Register now (free) for customized features, flight alerts, and more!